Time;durP1;ratioP1;P1;durP2;ratioP2;P2;SDS_P1;SDS_P2;PMS_P1;PMS_P2;Temp;Humidity;BMP_temperature;BMP_pressure;BME280_temperature;BME280_humidity;BME280_pressure;Samples;Min_cycle;Max_cycle;Signal;HPM_P1;HPM_P2
2021/08/22 00:00:31;;;;;;;5.15;4.25;;;18.30;70.20;;;18.14;55.06;95170.84;5016266;28;20216;-82
2021/08/22 00:02:59;;;;;;;5.70;4.50;;;18.20;70.20;;;18.10;55.38;95163.59;5032563;28;20223;-83
2021/08/22 00:05:27;;;;;;;6.28;4.50;;;18.20;70.30;;;18.09;55.39;95170.75;5033954;28;20324;-83
2021/08/22 00:07:54;;;;;;;5.85;4.75;;;18.30;70.50;;;18.09;55.20;95176.06;5050560;28;20278;-83
2021/08/22 00:10:24;;;;;;;6.78;4.45;;;18.20;70.60;;;18.10;55.51;95182.16;5019070;28;20222;-82
2021/08/22 00:12:51;;;;;;;6.25;4.97;;;18.20;70.50;;;18.08;55.46;95175.25;5052706;28;20195;-82
2021/08/22 00:15:19;;;;;;;6.13;5.13;;;18.20;70.70;;;18.06;55.06;95169.34;5017615;28;20220;-83
2021/08/22 00:17:47;;;;;;;5.65;5.10;;;18.20;70.70;;;18.04;55.37;95171.44;5030832;28;20325;-83
2021/08/22 00:20:14;;;;;;;5.05;4.55;;;18.20;70.80;;;18.00;55.42;95170.28;5035756;28;20310;-83
2021/08/22 00:22:41;;;;;;;5.57;4.90;;;18.10;70.60;;;18.00;55.91;95172.94;5052173;28;20219;-83
2021/08/22 00:25:09;;;;;;;5.68;5.07;;;18.20;71.00;;;17.98;55.65;95163.59;5019607;28;20223;-83
2021/08/22 00:27:36;;;;;;;5.97;4.75;;;18.10;71.10;;;17.99;56.33;95170.50;5016896;28;20660;-83
2021/08/22 00:30:04;;;;;;;5.25;4.70;;;18.10;70.80;;;17.96;55.42;95168.34;5015915;28;20216;-83
2021/08/22 00:32:32;;;;;;;6.65;5.20;;;18.10;70.80;;;17.93;56.04;95170.38;5036865;28;20223;-83
2021/08/22 00:34:59;;;;;;;5.10;4.60;;;18.10;70.90;;;17.91;55.91;95169.78;5031716;28;20587;-83
2021/08/22 00:37:26;;;;;;;6.10;4.88;;;18.10;70.80;;;17.90;55.77;95170.03;5032075;28;20275;-83
2021/08/22 00:39:55;;;;;;;5.85;5.25;;;18.00;71.00;;;17.89;56.57;95181.69;5015699;28;20704;-83
2021/08/22 00:42:25;;;;;;;6.03;5.03;;;18.10;71.40;;;17.86;56.21;95176.84;5016094;28;20287;-83
2021/08/22 00:44:52;;;;;;;6.47;4.68;;;18.10;71.80;;;17.85;56.77;95173.38;5015740;28;20235;-84
2021/08/22 00:47:20;;;;;;;5.68;5.07;;;18.00;71.30;;;17.84;56.15;95169.09;5039638;28;20200;-83
2021/08/22 00:49:47;;;;;;;5.40;4.88;;;18.00;71.50;;;17.84;56.52;95170.97;5032129;28;20881;-83
2021/08/22 00:52:14;;;;;;;5.57;4.80;;;18.00;71.50;;;17.84;56.43;95168.31;5016655;28;20282;-83
2021/08/22 00:54:42;;;;;;;6.05;5.22;;;18.00;71.50;;;17.83;56.65;95167.47;5050743;28;20277;-83
2021/08/22 00:57:13;;;;;;;6.13;5.18;;;18.00;71.90;;;17.83;56.83;95159.53;5035992;28;20223;-84
2021/08/22 00:59:41;;;;;;;6.53;5.20;;;17.90;71.80;;;17.81;56.25;95158.13;5035268;28;20303;-83
2021/08/22 01:02:14;;;;;;;5.90;5.30;;;17.90;71.90;;;17.78;56.79;95146.16;5031477;28;20206;-83
2021/08/22 01:04:56;;;;;;;6.00;5.40;;;17.90;72.50;;;17.82;56.83;95159.75;5022681;28;20310;-83
2021/08/22 01:07:32;;;;;;;5.88;4.82;;;17.90;72.00;;;17.79;57.16;95153.06;5018315;28;20207;-83
2021/08/22 01:09:59;;;;;;;5.28;4.75;;;18.00;72.80;;;17.79;57.11;95163.69;5051969;28;20308;-83
2021/08/22 01:12:39;;;;;;;6.63;4.97;;;17.90;72.10;;;17.76;57.37;95159.66;5044175;28;20194;-83
2021/08/22 01:15:10;;;;;;;5.78;4.85;;;17.90;73.20;;;17.76;56.93;95148.25;5031668;28;20239;-82
2021/08/22 01:17:44;;;;;;;5.50;4.93;;;17.90;72.50;;;17.72;57.53;95155.03;5015470;28;20180;-84
2021/08/22 01:20:37;;;;;;;6.25;5.45;;;17.90;73.00;;;17.70;57.18;95149.97;5048027;28;20717;-83
2021/08/22 01:23:07;;;;;;;7.22;5.10;;;17.90;73.20;;;17.71;56.81;95156.06;5016069;28;20615;-83
2021/08/22 01:25:37;;;;;;;5.72;5.05;;;17.80;72.20;;;17.70;57.05;95152.63;5015167;28;20280;-83
2021/08/22 01:28:09;;;;;;;5.95;5.13;;;17.80;72.70;;;17.70;57.14;95159.75;5031817;28;20196;-83
2021/08/22 01:30:44;;;;;;;6.20;5.32;;;17.90;73.20;;;17.69;57.31;95156.31;5031379;28;20307;-83
2021/08/22 01:33:13;;;;;;;5.75;5.15;;;17.80;73.20;;;17.68;57.60;95145.94;5015771;28;20812;-83
2021/08/22 01:35:42;;;;;;;5.78;4.93;;;17.80;72.60;;;17.67;57.14;95144.31;5036326;28;20238;-83
2021/08/22 01:38:10;;;;;;;7.03;5.03;;;17.80;72.50;;;17.66;57.40;95140.03;5034994;28;20223;-83
2021/08/22 01:40:40;;;;;;;7.82;5.35;;;17.80;72.80;;;17.64;57.56;95147.41;5034577;28;20221;-83
2021/08/22 01:43:11;;;;;;;6.00;5.00;;;17.80;72.70;;;17.62;57.26;95147.66;5018126;28;20222;-83
2021/08/22 01:45:40;;;;;;;6.63;5.15;;;17.70;72.90;;;17.60;57.21;95141.75;5034501;28;20227;-83
2021/08/22 01:48:07;;;;;;;6.32;5.40;;;17.70;72.60;;;17.54;57.34;95134.72;5018102;28;20697;-83
2021/08/22 01:50:35;;;;;;;5.80;5.20;;;17.70;72.60;;;17.55;57.41;95136.34;5017435;28;20251;-83
2021/08/22 01:53:05;;;;;;;5.90;5.22;;;17.70;72.70;;;17.53;57.84;95135.78;5035075;28;20195;-82
2021/08/22 01:55:33;;;;;;;6.32;4.95;;;17.60;73.20;;;17.50;57.95;95139.69;5034640;28;20255;-82
2021/08/22 01:58:00;;;;;;;6.00;5.25;;;17.60;72.80;;;17.47;57.78;95142.81;5035396;28;20210;-83
2021/08/22 02:00:27;;;;;;;6.32;5.63;;;17.60;72.60;;;17.44;57.80;95138.78;5035685;28;20242;-82
2021/08/22 02:03:21;;;;;;;6.00;5.05;;;17.60;72.90;;;17.39;57.88;95141.31;5035074;28;20204;-83
2021/08/22 02:05:55;;;;;;;6.75;4.80;;;17.60;73.60;;;17.36;58.23;95147.06;5035093;28;20250;-83
2021/08/22 02:08:28;;;;;;;6.97;5.70;;;17.50;73.20;;;17.35;58.55;95149.94;5002418;28;20705;-82
2021/08/22 02:11:25;;;;;;;5.78;5.18;;;17.50;73.50;;;17.33;58.37;95141.41;5028984;28;20224;-83
2021/08/22 02:13:55;;;;;;;6.25;5.40;;;17.60;73.90;;;17.31;58.61;95138.97;5018384;28;20299;-83
2021/08/22 02:16:28;;;;;;;5.70;4.82;;;17.50;73.40;;;17.28;58.17;95134.13;5039691;28;20212;-83
2021/08/22 02:18:57;;;;;;;5.40;4.68;;;17.50;73.40;;;17.28;58.10;95137.59;5021122;28;20208;-83
2021/08/22 02:21:25;;;;;;;4.88;4.38;;;17.50;73.40;;;17.28;58.23;95136.78;5050623;28;20230;-83
2021/08/22 02:23:54;;;;;;;5.35;4.85;;;17.50;73.30;;;17.27;58.71;95130.69;5035010;28;20207;-83
2021/08/22 02:26:24;;;;;;;5.30;4.78;;;17.50;73.60;;;17.26;58.45;95128.25;5035710;28;20697;-83
2021/08/22 02:29:00;;;;;;;6.05;5.43;;;17.40;73.50;;;17.26;58.67;95129.06;5015132;28;20207;-83
2021/08/22 02:31:28;;;;;;;6.13;5.53;;;17.50;74.80;;;17.24;58.54;95130.31;5018080;28;20342;-83
2021/08/22 02:33:57;;;;;;;7.25;5.57;;;17.30;73.70;;;17.23;58.58;95134.00;5033313;28;20540;-83
2021/08/22 02:36:26;;;;;;;8.02;5.60;;;17.40;73.70;;;17.20;58.88;95123.84;5032542;28;20262;-84
2021/08/22 02:38:54;;;;;;;5.53;5.03;;;17.40;73.80;;;17.20;58.60;95134.44;5020869;28;20188;-83
2021/08/22 02:41:22;;;;;;;8.50;5.03;;;17.40;73.60;;;17.17;58.81;95127.75;5034727;28;20228;-83
2021/08/22 02:43:50;;;;;;;6.22;5.30;;;17.40;73.60;;;17.16;58.33;95120.06;5018599;28;20198;-83
2021/08/22 02:46:17;;;;;;;6.00;5.22;;;17.30;73.60;;;17.14;58.46;95109.69;5019353;28;20673;-83
2021/08/22 02:48:46;;;;;;;8.45;5.53;;;17.30;73.70;;;17.12;58.80;95111.75;5018095;28;20204;-83
2021/08/22 02:51:13;;;;;;;6.32;5.53;;;17.30;73.80;;;17.09;58.76;95115.66;5034510;28;20232;-85
2021/08/22 02:53:40;;;;;;;6.05;5.45;;;17.30;73.80;;;17.06;58.80;95108.16;5042968;28;20671;-83
2021/08/22 02:56:08;;;;;;;6.72;5.45;;;17.20;73.80;;;17.04;58.91;95109.41;5037425;28;20723;-83
2021/08/22 02:58:35;;;;;;;6.07;5.38;;;17.20;73.90;;;17.03;59.01;95111.28;5037029;28;20298;-83
2021/08/22 03:01:02;;;;;;;7.97;5.55;;;17.20;74.00;;;17.02;59.01;95108.84;5049696;28;20228;-83
2021/08/22 03:03:29;;;;;;;6.00;5.18;;;17.20;74.10;;;17.00;58.84;95109.06;5033151;28;20200;-83
2021/08/22 03:05:57;;;;;;;6.97;5.50;;;17.20;73.90;;;16.97;58.74;95106.88;5017725;28;20270;-84
2021/08/22 03:08:24;;;;;;;7.20;5.40;;;17.10;74.00;;;16.95;58.78;95098.34;5017580;28;20687;-83
2021/08/22 03:10:51;;;;;;;6.72;5.70;;;17.10;74.10;;;16.90;58.72;95093.69;5033823;28;20247;-82
2021/08/22 03:13:18;;;;;;;5.65;5.10;;;17.10;74.20;;;16.88;59.24;95090.47;5036758;28;20203;-83
2021/08/22 03:15:45;;;;;;;6.35;5.70;;;17.10;74.30;;;16.88;59.14;95089.66;5036820;28;20774;-83
2021/08/22 03:18:14;;;;;;;6.22;5.05;;;17.00;74.20;;;16.83;59.21;95092.97;5037147;28;20219;-83
2021/08/22 03:20:41;;;;;;;6.53;5.47;;;17.10;75.10;;;16.80;59.55;95096.09;5027028;28;20228;-83
2021/08/22 03:23:08;;;;;;;6.50;5.50;;;17.00;74.30;;;16.79;59.47;95086.53;5028087;28;20192;-83
2021/08/22 03:25:36;;;;;;;5.85;5.00;;;17.00;74.30;;;16.75;59.16;95093.31;5016811;28;20307;-84
2021/08/22 03:28:04;;;;;;;6.65;5.43;;;17.00;74.50;;;16.72;59.31;95094.59;5032990;28;20206;-83
2021/08/22 03:30:31;;;;;;;6.03;5.10;;;16.90;74.50;;;16.72;59.45;95091.94;5019352;28;20212;-83
2021/08/22 03:32:58;;;;;;;6.38;5.55;;;16.90;74.70;;;16.72;59.89;95102.53;5022853;28;20200;-82
2021/08/22 03:35:25;;;;;;;7.20;5.57;;;16.90;74.80;;;16.71;59.61;95095.63;5027232;28;20225;-82
2021/08/22 03:37:53;;;;;;;5.78;5.15;;;16.90;74.70;;;16.68;59.77;95087.31;5042639;28;20568;-82
2021/08/22 03:40:20;;;;;;;6.85;5.40;;;16.90;74.70;;;16.67;59.62;95085.69;5031095;28;20219;-82
2021/08/22 03:42:47;;;;;;;7.30;5.68;;;16.90;74.80;;;16.64;59.66;95089.59;5031183;28;20195;-82
2021/08/22 03:45:16;;;;;;;7.25;5.38;;;16.80;74.80;;;16.65;60.00;95093.88;5015792;28;20216;-82
2021/08/22 03:47:43;;;;;;;6.20;5.22;;;16.80;75.00;;;16.61;59.76;95085.56;5016301;28;20214;-83
2021/08/22 03:50:11;;;;;;;6.97;5.13;;;16.80;74.80;;;16.61;59.96;95090.03;4999932;28;20689;-83
2021/08/22 03:52:38;;;;;;;6.30;5.40;;;16.80;74.80;;;16.59;59.52;95090.28;5032829;28;20283;-83
2021/08/22 03:55:06;;;;;;;6.88;5.30;;;16.80;74.80;;;16.57;59.79;95094.19;5023250;28;20928;-82
2021/08/22 03:57:33;;;;;;;6.05;5.30;;;16.70;74.80;;;16.54;59.61;95103.38;5032223;28;20250;-82
2021/08/22 04:00:01;;;;;;;7.30;5.88;;;16.70;74.80;;;16.53;59.87;95104.41;5029917;28;20266;-83
2021/08/22 04:02:37;;;;;;;7.90;5.10;;;16.70;75.00;;;16.52;60.28;95109.94;5030442;28;20275;-82
2021/08/22 04:05:27;;;;;;;6.55;5.57;;;16.70;75.00;;;16.47;59.97;95100.00;5034484;28;20218;-83
2021/08/22 04:07:55;;;;;;;6.47;5.30;;;16.70;75.00;;;16.43;59.87;95094.34;5014024;28;20537;-83
2021/08/22 04:10:25;;;;;;;7.53;6.03;;;16.60;75.00;;;16.44;59.98;95101.28;5015245;28;20219;-83
2021/08/22 04:12:54;;;;;;;6.50;5.65;;;16.60;75.00;;;16.43;59.93;95104.13;5029719;28;20221;-83
2021/08/22 04:15:23;;;;;;;6.38;5.75;;;16.60;75.40;;;16.45;60.06;95102.06;5035519;28;20742;-83
2021/08/22 04:17:51;;;;;;;7.20;5.82;;;16.60;75.30;;;16.44;60.46;95098.63;5051557;28;20223;-82
2021/08/22 04:20:18;;;;;;;7.05;5.30;;;16.60;75.30;;;16.45;60.17;95094.94;5035553;28;20219;-83
2021/08/22 04:22:45;;;;;;;6.55;5.72;;;16.60;75.50;;;16.46;60.55;95098.41;5019452;28;20250;-82
2021/08/22 04:25:13;;;;;;;7.97;5.90;;;16.60;75.50;;;16.48;60.50;95094.50;5035564;28;20230;-83
2021/08/22 04:27:41;;;;;;;6.95;5.90;;;16.60;75.70;;;16.50;60.36;95099.56;5034989;28;20199;-83
2021/08/22 04:30:11;;;;;;;9.38;6.15;;;16.60;75.70;;;16.54;60.48;95102.56;5015716;28;20258;-82
2021/08/22 04:32:38;;;;;;;6.55;5.57;;;16.60;76.00;;;16.55;60.80;95102.34;5033024;28;20191;-82
2021/08/22 04:35:09;;;;;;;6.80;5.72;;;16.60;75.90;;;16.58;60.73;95109.84;5015459;28;20228;-83
2021/08/22 04:37:37;;;;;;;7.32;5.72;;;16.70;76.00;;;16.59;60.45;95100.88;5032142;28;20192;-83
2021/08/22 04:40:06;;;;;;;6.28;5.68;;;16.70;76.00;;;16.63;60.75;95102.03;5024360;28;20261;-83
2021/08/22 04:42:33;;;;;;;5.85;5.25;;;16.60;75.90;;;16.64;60.74;95100.19;5050343;28;20199;-82
2021/08/22 04:45:00;;;;;;;6.43;4.88;;;16.70;75.90;;;16.65;60.54;95097.31;5035127;28;20643;-83
2021/08/22 04:47:28;;;;;;;6.70;5.32;;;16.70;76.00;;;16.69;60.73;95096.88;5018641;28;20208;-84
2021/08/22 04:49:55;;;;;;;6.68;5.90;;;16.70;76.10;;;16.72;60.60;95101.72;5033742;28;20289;-84
2021/08/22 04:52:22;;;;;;;6.25;5.45;;;16.70;76.10;;;16.76;60.76;95097.56;5018952;28;20221;-83
2021/08/22 04:54:49;;;;;;;6.70;5.70;;;16.70;76.20;;;16.78;60.71;95103.44;5051682;28;20289;-83
2021/08/22 04:57:16;;;;;;;6.05;5.45;;;16.80;76.20;;;16.82;60.84;95091.38;5035230;28;20196;-83
2021/08/22 04:59:44;;;;;;;6.65;5.60;;;16.80;76.20;;;16.87;60.94;95088.03;5035304;28;20214;-83
2021/08/22 05:02:11;;;;;;;7.15;5.93;;;16.90;76.30;;;16.94;60.72;95094.91;5030571;28;20200;-83
2021/08/22 05:04:39;;;;;;;6.57;5.55;;;16.90;76.30;;;17.00;60.46;95093.16;5015806;28;20200;-84
2021/08/22 05:07:06;;;;;;;8.48;6.20;;;16.90;76.40;;;17.07;60.64;95103.69;5016016;28;20391;-83
2021/08/22 05:09:33;;;;;;;6.57;5.88;;;17.00;76.60;;;17.13;61.04;95100.91;5015811;28;20247;-84
2021/08/22 05:12:00;;;;;;;7.30;6.32;;;17.00;76.60;;;17.20;60.75;95098.16;5033861;28;20206;-84
2021/08/22 05:14:34;;;;;;;6.97;6.05;;;17.00;76.70;;;17.27;60.69;95104.16;5034879;28;20534;-83
2021/08/22 05:17:02;;;;;;;7.50;6.07;;;17.20;77.30;;;17.33;61.06;95102.44;5019035;28;20653;-83
2021/08/22 05:19:30;;;;;;;7.20;6.50;;;17.20;76.90;;;17.40;61.02;95097.03;5019020;28;20551;-83
2021/08/22 05:21:57;;;;;;;8.32;6.80;;;17.20;76.80;;;17.47;60.58;95099.56;5033410;28;20195;-83
2021/08/22 05:24:25;;;;;;;7.13;6.20;;;17.30;76.90;;;17.53;60.59;95099.44;5051152;28;20282;-83
2021/08/22 05:26:52;;;;;;;7.38;6.47;;;17.30;76.90;;;17.60;60.89;95105.44;5031831;28;20318;-84
2021/08/22 05:29:19;;;;;;;7.65;6.03;;;17.50;77.00;;;17.66;61.14;95114.31;5002169;28;20202;-83
2021/08/22 05:31:46;;;;;;;7.55;6.25;;;17.50;77.00;;;17.71;60.58;95119.75;5035320;28;20326;-83
2021/08/22 05:34:13;;;;;;;8.13;6.22;;;17.60;77.10;;;17.77;61.18;95115.34;5029248;28;20274;-83
2021/08/22 05:36:42;;;;;;;6.80;6.10;;;17.60;77.10;;;17.84;60.80;95116.03;5041012;28;20318;-83
2021/08/22 05:39:10;;;;;;;7.05;5.75;;;17.80;77.10;;;17.90;61.19;95116.97;5024678;28;20203;-83
2021/08/22 05:41:37;;;;;;;7.05;6.32;;;17.70;77.00;;;17.94;60.64;95115.44;5055214;28;20306;-83
2021/08/22 05:44:05;;;;;;;8.02;6.90;;;17.80;77.80;;;17.98;60.66;95110.50;5018217;28;20206;-83
2021/08/22 05:46:32;;;;;;;7.35;6.07;;;17.80;76.90;;;18.03;61.09;95106.13;5036671;28;20215;-83
2021/08/22 05:49:00;;;;;;;8.18;6.50;;;17.80;77.00;;;18.11;60.71;95104.16;5039119;28;20278;-82
2021/08/22 05:51:27;;;;;;;8.23;6.63;;;17.90;77.00;;;18.19;60.47;95115.22;5038761;28;20234;-83
2021/08/22 05:53:54;;;;;;;7.78;6.97;;;18.00;77.20;;;18.27;60.68;95111.38;5039091;28;20206;-84
2021/08/22 05:56:22;;;;;;;8.13;7.25;;;18.10;77.20;;;18.35;61.10;95104.91;5034772;28;20299;-84
2021/08/22 05:58:49;;;;;;;7.22;6.53;;;18.10;77.20;;;18.43;60.91;95111.69;5003400;28;20871;-84
2021/08/22 06:01:16;;;;;;;10.13;6.53;;;18.10;77.10;;;18.51;60.59;95103.34;5019025;28;20685;-83
2021/08/22 06:03:44;;;;;;;7.35;6.32;;;18.20;77.30;;;18.58;60.84;95114.63;5020271;28;20207;-83
2021/08/22 06:06:12;;;;;;;8.82;6.82;;;18.30;77.40;;;18.67;60.70;95107.09;5037811;28;20584;-84
2021/08/22 06:08:39;;;;;;;7.57;6.78;;;18.40;77.40;;;18.77;61.17;95112.56;5002861;28;20287;-84
2021/08/22 06:11:06;;;;;;;6.95;6.25;;;18.40;77.40;;;18.84;60.69;95105.25;5018564;28;20308;-83
2021/08/22 06:13:33;;;;;;;7.10;6.40;;;18.50;77.50;;;18.98;60.91;95103.16;5018130;28;20204;-83
2021/08/22 06:16:03;;;;;;;7.40;6.63;;;18.60;77.60;;;19.11;60.50;95110.00;5018147;28;20285;-84
2021/08/22 06:18:30;;;;;;;9.45;6.47;;;18.70;77.70;;;19.23;61.34;95103.81;5023426;28;20211;-83
2021/08/22 06:20:57;;;;;;;6.85;6.15;;;18.80;77.60;;;19.33;60.31;95096.81;5034942;28;20300;-83
2021/08/22 06:23:24;;;;;;;7.55;6.18;;;19.00;77.50;;;19.48;60.72;95103.38;5029739;28;20188;-83
2021/08/22 06:25:52;;;;;;;8.10;6.68;;;19.00;77.40;;;19.59;60.28;95096.38;5021019;28;20249;-82
2021/08/22 06:28:19;;;;;;;7.00;6.30;;;19.10;77.40;;;19.72;60.01;95100.56;5037376;28;20191;-82
2021/08/22 06:30:46;;;;;;;7.75;6.90;;;19.30;77.50;;;19.84;60.28;95088.75;5033522;28;20270;-81
2021/08/22 06:33:13;;;;;;;7.55;6.53;;;19.30;77.30;;;19.96;60.19;95088.66;5024202;28;20188;-82
2021/08/22 06:35:40;;;;;;;8.00;6.28;;;19.40;77.30;;;20.09;59.89;95078.69;5017520;28;20270;-83
2021/08/22 06:38:07;;;;;;;6.72;6.03;;;19.50;77.20;;;20.19;60.16;95088.66;5017847;28;20192;-82
2021/08/22 06:40:35;;;;;;;6.60;5.90;;;19.60;77.10;;;20.30;59.95;95087.75;5045607;28;20251;-82
2021/08/22 06:43:02;;;;;;;7.25;6.38;;;19.80;77.20;;;20.43;60.00;95084.72;5020271;28;20200;-82
2021/08/22 06:45:29;;;;;;;8.48;5.90;;;19.90;77.20;;;20.57;59.79;95092.31;5019166;28;20250;-82
2021/08/22 06:47:56;;;;;;;8.63;6.05;;;20.00;77.10;;;20.64;59.72;95080.38;5039222;28;20196;-82
2021/08/22 06:50:24;;;;;;;6.55;5.88;;;20.10;77.00;;;20.81;59.20;95082.16;5017407;28;20270;-83
2021/08/22 06:52:52;;;;;;;6.70;5.95;;;20.20;77.00;;;20.92;59.56;95083.88;5001185;28;20658;-82
2021/08/22 06:55:21;;;;;;;7.55;6.18;;;20.30;77.00;;;21.08;59.22;95095.50;5017353;28;20241;-83
2021/08/22 06:57:48;;;;;;;6.50;5.85;;;20.50;77.10;;;21.19;59.24;95093.72;5018181;28;20642;-82
2021/08/22 07:00:17;;;;;;;6.65;5.90;;;20.50;76.90;;;21.35;59.04;95097.31;5016858;28;20323;-83
2021/08/22 07:02:45;;;;;;;7.18;6.07;;;20.70;76.80;;;21.49;58.92;95102.22;5034584;28;20187;-83
2021/08/22 07:05:13;;;;;;;7.53;6.32;;;20.80;76.70;;;21.62;58.78;95106.31;5033797;28;20775;-85
2021/08/22 07:07:40;;;;;;;8.25;6.55;;;20.90;76.60;;;21.76;58.94;95091.47;5017107;28;20618;-82
2021/08/22 07:10:09;;;;;;;8.77;6.07;;;21.00;76.60;;;21.91;59.06;95098.78;5001003;28;20224;-84
2021/08/22 07:12:36;;;;;;;7.32;6.22;;;21.20;76.60;;;22.06;58.71;95098.84;5018330;28;20231;-82
2021/08/22 07:15:05;;;;;;;6.18;5.47;;;21.30;76.50;;;22.19;58.16;95096.75;5042313;28;20219;-82
2021/08/22 07:17:32;;;;;;;8.30;5.78;;;21.50;76.50;;;22.34;58.23;95099.50;5034555;28;20228;-83
2021/08/22 07:20:00;;;;;;;7.18;5.90;;;21.60;76.30;;;22.46;58.40;95093.97;5036561;28;20223;-83
2021/08/22 07:22:27;;;;;;;6.22;5.47;;;21.70;76.20;;;22.59;57.61;95098.00;5033436;28;20200;-83
2021/08/22 07:24:56;;;;;;;8.60;6.18;;;21.90;76.00;;;22.69;57.73;95092.69;5033420;28;20263;-84
2021/08/22 07:27:24;;;;;;;8.35;6.28;;;22.00;75.90;;;22.85;57.72;95100.72;5033308;28;20216;-83
2021/08/22 07:29:51;;;;;;;7.13;6.25;;;22.10;75.80;;;23.00;57.84;95103.41;5017827;28;20608;-83
2021/08/22 07:32:18;;;;;;;6.25;5.45;;;22.20;75.80;;;23.15;57.74;95105.31;5034862;28;20305;-83
2021/08/22 07:34:45;;;;;;;7.18;5.50;;;22.40;75.80;;;23.32;57.49;95098.94;5034345;28;20316;-83
2021/08/22 07:37:12;;;;;;;6.30;5.20;;;22.50;75.80;;;23.55;57.57;95099.47;5019969;28;20274;-83
2021/08/22 07:39:39;;;;;;;5.97;5.38;;;22.70;76.00;;;23.79;57.50;95102.34;5041304;28;20234;-83
2021/08/22 07:42:08;;;;;;;6.15;5.40;;;22.80;75.80;;;24.01;56.91;95103.94;5043227;28;20210;-82
2021/08/22 07:44:35;;;;;;;6.43;5.70;;;23.10;75.80;;;24.25;56.70;95102.25;5036517;28;20196;-84
2021/08/22 07:47:02;;;;;;;5.85;5.28;;;23.30;75.80;;;24.48;56.60;95096.53;5020220;28;20200;-84
2021/08/22 07:49:30;;;;;;;5.63;4.70;;;23.50;75.50;;;24.67;56.02;95100.22;5029288;28;20246;-84
2021/08/22 07:51:57;;;;;;;6.75;5.25;;;23.60;75.20;;;24.85;55.80;95100.66;5046660;28;20289;-84
2021/08/22 07:54:24;;;;;;;5.45;4.93;;;23.80;75.00;;;25.03;56.03;95101.88;5039575;28;20200;-85
2021/08/22 07:56:52;;;;;;;5.60;4.55;;;24.00;74.70;;;25.17;55.32;95096.69;5025312;28;20242;-83
2021/08/22 07:59:19;;;;;;;5.13;4.30;;;24.20;74.30;;;25.32;54.92;95096.56;5046287;28;20192;-83
2021/08/22 08:01:46;;;;;;;5.18;4.68;;;24.40;74.10;;;25.42;55.04;95099.19;5006262;28;20232;-84
2021/08/22 08:04:13;;;;;;;5.53;4.55;;;24.50;73.80;;;25.48;54.43;95121.44;5047947;28;20439;-84
2021/08/22 08:06:41;;;;;;;5.22;4.43;;;24.70;73.20;;;25.47;54.24;95141.31;5021606;28;20224;-85
2021/08/22 08:09:08;;;;;;;5.18;4.53;;;24.70;72.80;;;25.36;53.78;95145.94;5033106;28;20203;-85
2021/08/22 08:11:35;;;;;;;6.72;4.60;;;24.80;72.00;;;25.24;53.51;95157.03;5047602;28;20309;-83
2021/08/22 08:14:02;;;;;;;5.50;4.80;;;24.90;71.60;;;25.13;52.94;95160.06;5035810;28;20233;-83
2021/08/22 08:16:31;;;;;;;5.53;4.53;;;24.80;71.20;;;25.03;53.37;95171.66;5050249;28;20224;-82
2021/08/22 08:18:58;;;;;;;4.90;4.40;;;24.70;71.10;;;24.88;53.31;95181.38;5050069;28;20203;-83
2021/08/22 08:21:25;;;;;;;5.40;4.40;;;24.70;71.10;;;24.73;53.46;95184.13;5032634;28;20683;-83
2021/08/22 08:23:52;;;;;;;6.95;4.65;;;24.60;70.90;;;24.56;53.47;95200.53;5035779;28;20206;-83
2021/08/22 08:26:20;;;;;;;6.93;4.40;;;24.60;70.90;;;24.39;53.79;95207.03;5035501;28;20211;-83
2021/08/22 08:28:47;;;;;;;5.35;4.50;;;24.50;71.00;;;24.20;54.22;95216.72;5032088;28;20215;-84
2021/08/22 08:31:16;;;;;;;6.32;4.50;;;24.30;70.90;;;24.03;54.31;95219.69;5031261;28;20208;-83
2021/08/22 08:33:47;;;;;;;5.22;4.72;;;24.10;71.00;;;23.74;54.88;95218.34;5031970;28;20200;-84
2021/08/22 08:36:14;;;;;;;8.43;5.43;;;24.00;71.40;;;23.42;55.45;95223.94;5014301;28;20227;-82
2021/08/22 08:38:41;;;;;;;6.90;5.15;;;23.80;71.30;;;23.11;55.59;95218.50;5027603;28;20241;-81
2021/08/22 08:41:09;;;;;;;5.28;4.75;;;23.60;71.50;;;22.81;55.82;95211.97;5050193;28;20294;-83
2021/08/22 08:43:37;;;;;;;5.15;4.65;;;23.30;71.60;;;22.53;56.61;95201.44;5032966;28;20201;-82
2021/08/22 08:46:16;;;;;;;4.90;4.40;;;23.10;71.80;;;22.29;56.63;95205.53;5037028;28;20217;-83
2021/08/22 08:48:54;;;;;;;5.93;5.18;;;22.80;72.50;;;22.07;57.18;95204.63;5051792;28;20215;-83
2021/08/22 08:52:04;;;;;;;7.78;5.03;;;22.60;72.30;;;21.82;57.29;95207.91;5017759;28;20575;-82
2021/08/22 08:55:35;;;;;;;5.38;4.65;;;22.30;72.40;;;21.54;57.20;95195.66;5032400;28;20196;-82
2021/08/22 08:58:02;;;;;;;7.82;4.93;;;22.10;72.90;;;21.43;57.58;95203.56;5011988;28;20232;-82
2021/08/22 09:00:49;;;;;;;6.28;5.00;;;21.80;72.90;;;21.26;58.66;95194.84;5015026;28;20584;-83
2021/08/22 09:03:19;;;;;;;7.45;5.00;;;21.70;73.90;;;21.13;58.80;95192.59;4999856;28;20200;-82
2021/08/22 09:06:28;;;;;;;6.32;5.00;;;21.50;73.60;;;21.00;59.01;95183.94;5015205;28;20223;-83
2021/08/22 09:10:24;;;;;;;;;;;;;;;;;;;;;
2021/08/22 09:14:37;;;;;;;6.57;5.15;;;21.20;74.50;;;20.89;59.50;95193.69;5045244;28;20193;-83
2021/08/22 09:19:04;;;;;;;6.10;5.50;;;21.10;74.80;;;20.94;59.47;95174.28;5050267;28;20238;-81
2021/08/22 09:22:29;;;;;;;6.13;5.53;;;21.00;75.40;;;21.04;59.45;95176.25;5013989;28;20212;-82
2021/08/22 09:25:36;;;;;;;5.88;5.10;;;21.00;75.50;;;21.11;59.11;95166.19;5047589;28;20244;-82
2021/08/22 09:28:31;;;;;;;5.88;5.28;;;21.00;75.50;;;21.17;59.40;95151.03;5047696;28;20195;-82
2021/08/22 09:32:04;;;;;;;7.50;4.97;;;21.00;75.60;;;21.20;59.41;95156.69;5055150;28;20258;-82
2021/08/22 09:35:05;;;;;;;6.45;5.20;;;21.10;76.30;;;21.28;59.17;95152.75;5014520;28;20666;-83
2021/08/22 09:38:17;;;;;;;6.05;5.45;;;21.10;76.10;;;21.38;59.53;95150.16;5026703;28;20764;-82
2021/08/22 09:41:41;;;;;;;6.80;5.30;;;21.20;75.90;;;21.51;59.46;95148.94;5050164;28;20219;-82
2021/08/22 09:44:43;;;;;;;6.30;5.20;;;21.30;76.20;;;21.71;59.55;95147.50;5031937;28;20200;-83
2021/08/22 09:47:31;;;;;;;5.95;5.35;;;21.40;76.60;;;21.91;59.73;95152.19;5014655;28;20271;-82
2021/08/22 09:50:41;;;;;;;6.07;5.47;;;21.50;76.60;;;22.16;59.51;95161.41;5038752;28;20229;-82
2021/08/22 09:53:51;;;;;;;6.28;5.68;;;21.70;76.70;;;22.41;59.58;95154.59;5032867;28;20284;-83
2021/08/22 09:56:34;;;;;;;5.65;4.97;;;21.80;76.80;;;22.69;59.41;95158.69;5030648;28;20226;-83
2021/08/22 09:59:41;;;;;;;6.03;5.20;;;22.10;76.60;;;22.95;59.29;95156.91;5031159;28;20230;-84
2021/08/22 10:02:17;;;;;;;6.03;4.85;;;22.30;76.80;;;23.23;59.08;95154.03;5031011;28;20286;-83
2021/08/22 10:05:03;;;;;;;6.93;6.00;;;22.50;76.80;;;23.47;58.52;95173.88;5030841;28;20538;-84
2021/08/22 10:08:19;;;;;;;6.55;5.93;;;22.70;76.70;;;23.70;58.27;95157.53;5031998;28;20601;-83
2021/08/22 10:10:51;;;;;;;6.78;6.07;;;23.00;76.30;;;23.95;58.41;95144.16;5032067;28;20216;-84
2021/08/22 10:13:18;;;;;;;5.97;5.38;;;23.20;76.50;;;24.23;58.05;95141.13;5014174;28;20622;-84
2021/08/22 10:15:46;;;;;;;6.20;5.60;;;23.40;76.30;;;24.48;57.72;95136.75;4997877;28;20215;-82
2021/08/22 10:18:24;;;;;;;5.65;5.13;;;23.60;76.30;;;24.77;57.15;95145.75;4998156;28;20623;-83
2021/08/22 10:21:04;;;;;;;6.05;5.50;;;23.90;75.80;;;25.02;56.87;95144.00;5017430;28;20230;-83
2021/08/22 10:23:43;;;;;;;5.95;5.28;;;24.10;76.10;;;25.18;56.68;95150.09;5034328;28;20298;-84
2021/08/22 10:26:47;;;;;;;6.50;5.90;;;24.40;75.30;;;25.28;56.21;95148.41;5034162;28;20602;-83
2021/08/22 10:29:20;;;;;;;6.80;6.10;;;24.50;75.00;;;25.25;55.68;95150.59;5030338;28;20249;-85
2021/08/22 10:31:54;;;;;;;8.63;6.60;;;24.70;74.00;;;25.24;55.04;95138.25;5017558;28;20286;-84
2021/08/22 10:34:22;;;;;;;6.07;5.47;;;24.80;73.40;;;25.34;55.63;95148.09;5026190;28;20215;-85
2021/08/22 10:36:51;;;;;;;6.97;6.30;;;24.90;73.90;;;25.41;55.08;95140.56;5022020;28;20224;-84
2021/08/22 10:39:27;;;;;;;6.30;5.70;;;24.90;73.70;;;25.52;55.22;95152.03;5019673;28;20247;-84
2021/08/22 10:41:57;;;;;;;6.70;5.97;;;25.00;73.60;;;25.64;55.48;95143.59;5033810;28;20251;-84
2021/08/22 10:44:35;;;;;;;6.25;5.57;;;25.10;73.70;;;25.77;54.93;95152.06;5034759;28;20727;-84